sensor_id;sensor_type;location;lat;lon;timestamp;P1;durP1;ratioP1;P2;durP2;ratioP2
69678;SDS011;56915;52.046;4.854;2022-11-12T00:00:55;22.38;;;10.45;;
69678;SDS011;56915;52.046;4.854;2022-11-12T00:03:24;18.77;;;8.95;;
69678;SDS011;56915;52.046;4.854;2022-11-12T00:05:51;20.95;;;9.30;;
69678;SDS011;56915;52.046;4.854;2022-11-12T00:08:18;17.90;;;9.30;;
69678;SDS011;56915;52.046;4.854;2022-11-12T00:10:45;23.02;;;10.50;;
69678;SDS011;56915;52.046;4.854;2022-11-12T00:13:12;19.30;;;10.15;;
69678;SDS011;56915;52.046;4.854;2022-11-12T00:15:40;27.90;;;11.25;;
69678;SDS011;56915;52.046;4.854;2022-11-12T00:18:07;21.42;;;10.68;;
69678;SDS011;56915;52.046;4.854;2022-11-12T00:20:34;21.90;;;10.50;;
69678;SDS011;56915;52.046;4.854;2022-11-12T00:23:01;24.38;;;10.32;;
69678;SDS011;56915;52.046;4.854;2022-11-12T00:25:28;28.50;;;10.88;;
69678;SDS011;56915;52.046;4.854;2022-11-12T00:28:02;26.35;;;11.13;;
69678;SDS011;56915;52.046;4.854;2022-11-12T00:30:33;25.10;;;10.88;;
69678;SDS011;56915;52.046;4.854;2022-11-12T00:33:02;22.27;;;10.07;;
69678;SDS011;56915;52.046;4.854;2022-11-12T00:35:30;21.38;;;10.18;;
69678;SDS011;56915;52.046;4.854;2022-11-12T00:37:58;30.20;;;11.82;;
69678;SDS011;56915;52.046;4.854;2022-11-12T00:40:25;34.53;;;11.13;;
69678;SDS011;56915;52.046;4.854;2022-11-12T00:42:53;23.45;;;9.65;;
69678;SDS011;56915;52.046;4.854;2022-11-12T00:45:20;106.60;;;11.40;;
69678;SDS011;56915;52.046;4.854;2022-11-12T00:47:47;50.22;;;10.90;;
69678;SDS011;56915;52.046;4.854;2022-11-12T00:50:14;168.75;;;12.73;;
69678;SDS011;56915;52.046;4.854;2022-11-12T00:52:41;51.70;;;11.05;;
69678;SDS011;56915;52.046;4.854;2022-11-12T00:55:09;18.60;;;9.90;;
69678;SDS011;56915;52.046;4.854;2022-11-12T00:57:36;21.93;;;10.63;;
69678;SDS011;56915;52.046;4.854;2022-11-12T01:00:04;20.90;;;10.50;;
69678;SDS011;56915;52.046;4.854;2022-11-12T01:02:31;19.40;;;10.55;;
69678;SDS011;56915;52.046;4.854;2022-11-12T01:05:05;19.95;;;10.07;;
69678;SDS011;56915;52.046;4.854;2022-11-12T01:07:33;17.73;;;10.30;;
69678;SDS011;56915;52.046;4.854;2022-11-12T01:10:00;17.67;;;9.90;;
69678;SDS011;56915;52.046;4.854;2022-11-12T01:12:29;20.58;;;10.38;;
69678;SDS011;56915;52.046;4.854;2022-11-12T01:14:56;22.67;;;10.23;;
69678;SDS011;56915;52.046;4.854;2022-11-12T01:17:23;21.40;;;10.20;;
69678;SDS011;56915;52.046;4.854;2022-11-12T01:19:50;20.33;;;10.23;;
69678;SDS011;56915;52.046;4.854;2022-11-12T01:22:17;19.87;;;10.53;;
69678;SDS011;56915;52.046;4.854;2022-11-12T01:24:43;22.20;;;10.07;;
69678;SDS011;56915;52.046;4.854;2022-11-12T01:27:10;23.40;;;10.93;;
69678;SDS011;56915;52.046;4.854;2022-11-12T01:29:37;23.02;;;11.75;;
69678;SDS011;56915;52.046;4.854;2022-11-12T01:32:04;23.02;;;11.65;;
69678;SDS011;56915;52.046;4.854;2022-11-12T01:34:31;25.20;;;12.27;;
69678;SDS011;56915;52.046;4.854;2022-11-12T01:36:58;32.47;;;13.35;;
69678;SDS011;56915;52.046;4.854;2022-11-12T01:39:24;26.38;;;12.98;;
69678;SDS011;56915;52.046;4.854;2022-11-12T01:41:51;30.55;;;13.57;;
69678;SDS011;56915;52.046;4.854;2022-11-12T01:46:54;31.33;;;14.63;;
69678;SDS011;56915;52.046;4.854;2022-11-12T01:49:39;32.97;;;14.45;;
69678;SDS011;56915;52.046;4.854;2022-11-12T01:52:20;27.83;;;13.88;;
69678;SDS011;56915;52.046;4.854;2022-11-12T01:55:07;33.22;;;14.73;;
69678;SDS011;56915;52.046;4.854;2022-11-12T01:57:42;33.20;;;14.73;;
69678;SDS011;56915;52.046;4.854;2022-11-12T02:00:16;31.83;;;14.03;;
69678;SDS011;56915;52.046;4.854;2022-11-12T02:02:45;32.28;;;14.10;;
69678;SDS011;56915;52.046;4.854;2022-11-12T02:05:27;32.05;;;14.45;;
69678;SDS011;56915;52.046;4.854;2022-11-12T02:07:56;31.58;;;14.20;;
69678;SDS011;56915;52.046;4.854;2022-11-12T02:10:25;30.52;;;13.68;;
69678;SDS011;56915;52.046;4.854;2022-11-12T02:12:52;31.60;;;13.63;;
69678;SDS011;56915;52.046;4.854;2022-11-12T02:15:39;32.83;;;14.52;;
69678;SDS011;56915;52.046;4.854;2022-11-12T02:18:07;31.17;;;14.48;;
69678;SDS011;56915;52.046;4.854;2022-11-12T02:20:34;31.30;;;13.68;;
69678;SDS011;56915;52.046;4.854;2022-11-12T02:23:02;32.15;;;13.57;;
69678;SDS011;56915;52.046;4.854;2022-11-12T02:25:30;29.83;;;14.23;;
69678;SDS011;56915;52.046;4.854;2022-11-12T02:27:57;32.05;;;13.60;;
69678;SDS011;56915;52.046;4.854;2022-11-12T02:30:32;32.05;;;14.23;;
69678;SDS011;56915;52.046;4.854;2022-11-12T02:33:00;31.75;;;13.82;;
69678;SDS011;56915;52.046;4.854;2022-11-12T02:35:27;39.55;;;15.07;;
69678;SDS011;56915;52.046;4.854;2022-11-12T02:37:55;37.20;;;15.07;;
69678;SDS011;56915;52.046;4.854;2022-11-12T02:40:22;32.63;;;14.45;;
69678;SDS011;56915;52.046;4.854;2022-11-12T02:42:49;36.33;;;14.23;;
69678;SDS011;56915;52.046;4.854;2022-11-12T02:45:15;34.30;;;14.57;;
69678;SDS011;56915;52.046;4.854;2022-11-12T02:47:43;34.65;;;13.73;;
69678;SDS011;56915;52.046;4.854;2022-11-12T02:50:10;36.90;;;14.73;;
69678;SDS011;56915;52.046;4.854;2022-11-12T02:52:37;33.47;;;14.55;;
69678;SDS011;56915;52.046;4.854;2022-11-12T02:55:08;35.72;;;14.85;;
69678;SDS011;56915;52.046;4.854;2022-11-12T02:57:36;34.42;;;14.68;;
69678;SDS011;56915;52.046;4.854;2022-11-12T03:00:04;36.30;;;15.23;;
69678;SDS011;56915;52.046;4.854;2022-11-12T03:02:33;34.67;;;15.47;;
69678;SDS011;56915;52.046;4.854;2022-11-12T03:04:59;44.85;;;15.85;;
69678;SDS011;56915;52.046;4.854;2022-11-12T03:07:26;41.03;;;15.88;;
69678;SDS011;56915;52.046;4.854;2022-11-12T03:09:53;33.05;;;15.27;;
69678;SDS011;56915;52.046;4.854;2022-11-12T03:12:20;32.90;;;14.98;;
69678;SDS011;56915;52.046;4.854;2022-11-12T03:14:46;30.60;;;16.37;;
69678;SDS011;56915;52.046;4.854;2022-11-12T03:17:13;31.13;;;16.20;;
69678;SDS011;56915;52.046;4.854;2022-11-12T03:19:40;32.08;;;16.15;;
69678;SDS011;56915;52.046;4.854;2022-11-12T03:22:07;30.38;;;16.13;;
69678;SDS011;56915;52.046;4.854;2022-11-12T03:24:33;32.20;;;16.63;;
69678;SDS011;56915;52.046;4.854;2022-11-12T03:27:00;31.97;;;16.33;;
69678;SDS011;56915;52.046;4.854;2022-11-12T03:29:27;35.05;;;16.13;;
69678;SDS011;56915;52.046;4.854;2022-11-12T03:31:54;30.95;;;16.13;;
69678;SDS011;56915;52.046;4.854;2022-11-12T03:34:20;31.95;;;17.08;;
69678;SDS011;56915;52.046;4.854;2022-11-12T03:36:47;31.40;;;16.08;;
69678;SDS011;56915;52.046;4.854;2022-11-12T03:39:14;30.80;;;16.23;;
69678;SDS011;56915;52.046;4.854;2022-11-12T03:41:41;32.78;;;16.90;;
69678;SDS011;56915;52.046;4.854;2022-11-12T03:44:07;29.42;;;16.00;;
69678;SDS011;56915;52.046;4.854;2022-11-12T03:46:34;32.22;;;16.17;;
69678;SDS011;56915;52.046;4.854;2022-11-12T03:49:08;26.95;;;15.55;;
69678;SDS011;56915;52.046;4.854;2022-11-12T03:51:34;31.30;;;16.03;;
69678;SDS011;56915;52.046;4.854;2022-11-12T03:54:01;26.30;;;14.77;;
69678;SDS011;56915;52.046;4.854;2022-11-12T03:56:28;28.85;;;15.50;;
69678;SDS011;56915;52.046;4.854;2022-11-12T03:58:54;27.95;;;14.43;;
69678;SDS011;56915;52.046;4.854;2022-11-12T04:01:21;28.92;;;14.73;;
69678;SDS011;56915;52.046;4.854;2022-11-12T04:03:48;30.87;;;14.10;;
69678;SDS011;56915;52.046;4.854;2022-11-12T04:06:14;42.67;;;12.93;;
69678;SDS011;56915;52.046;4.854;2022-11-12T04:09:00;57.97;;;13.20;;
69678;SDS011;56915;52.046;4.854;2022-11-12T04:11:27;74.85;;;13.20;;
69678;SDS011;56915;52.046;4.854;2022-11-12T04:13:53;77.95;;;13.38;;
69678;SDS011;56915;52.046;4.854;2022-11-12T04:16:21;53.23;;;13.20;;
69678;SDS011;56915;52.046;4.854;2022-11-12T04:19:08;52.78;;;13.55;;
69678;SDS011;56915;52.046;4.854;2022-11-12T04:21:58;45.13;;;13.25;;
69678;SDS011;56915;52.046;4.854;2022-11-12T04:24:29;45.53;;;13.35;;
69678;SDS011;56915;52.046;4.854;2022-11-12T04:27:31;43.45;;;13.90;;
69678;SDS011;56915;52.046;4.854;2022-11-12T04:29:59;46.87;;;14.30;;
69678;SDS011;56915;52.046;4.854;2022-11-12T04:32:51;40.97;;;13.80;;
69678;SDS011;56915;52.046;4.854;2022-11-12T04:35:20;37.80;;;13.48;;
69678;SDS011;56915;52.046;4.854;2022-11-12T04:37:49;35.38;;;13.10;;
69678;SDS011;56915;52.046;4.854;2022-11-12T04:40:17;58.22;;;14.40;;
69678;SDS011;56915;52.046;4.854;2022-11-12T04:43:06;42.90;;;14.03;;
69678;SDS011;56915;52.046;4.854;2022-11-12T04:45:54;49.05;;;14.05;;
69678;SDS011;56915;52.046;4.854;2022-11-12T04:48:22;83.45;;;14.20;;
69678;SDS011;56915;52.046;4.854;2022-11-12T04:50:54;116.03;;;14.73;;
69678;SDS011;56915;52.046;4.854;2022-11-12T04:53:23;129.23;;;15.82;;
69678;SDS011;56915;52.046;4.854;2022-11-12T04:55:51;81.43;;;14.57;;
69678;SDS011;56915;52.046;4.854;2022-11-12T04:58:19;40.40;;;14.48;;
69678;SDS011;56915;52.046;4.854;2022-11-12T05:00:48;38.63;;;14.45;;
69678;SDS011;56915;52.046;4.854;2022-11-12T05:03:15;53.10;;;14.32;;
69678;SDS011;56915;52.046;4.854;2022-11-12T05:05:42;31.45;;;12.85;;
69678;SDS011;56915;52.046;4.854;2022-11-12T05:08:09;27.20;;;12.90;;
69678;SDS011;56915;52.046;4.854;2022-11-12T05:10:36;28.08;;;13.95;;
69678;SDS011;56915;52.046;4.854;2022-11-12T05:13:02;35.88;;;13.85;;
69678;SDS011;56915;52.046;4.854;2022-11-12T05:15:29;33.45;;;14.00;;
69678;SDS011;56915;52.046;4.854;2022-11-12T05:17:56;39.13;;;13.70;;
69678;SDS011;56915;52.046;4.854;2022-11-12T05:20:23;40.83;;;14.40;;
69678;SDS011;56915;52.046;4.854;2022-11-12T05:22:49;50.50;;;14.27;;
69678;SDS011;56915;52.046;4.854;2022-11-12T05:25:32;32.53;;;14.13;;
69678;SDS011;56915;52.046;4.854;2022-11-12T05:28:00;88.50;;;15.68;;
69678;SDS011;56915;52.046;4.854;2022-11-12T05:30:27;47.20;;;15.05;;
69678;SDS011;56915;52.046;4.854;2022-11-12T05:32:54;33.83;;;14.00;;
69678;SDS011;56915;52.046;4.854;2022-11-12T05:35:20;29.13;;;14.05;;
69678;SDS011;56915;52.046;4.854;2022-11-12T05:37:47;30.13;;;14.43;;
69678;SDS011;56915;52.046;4.854;2022-11-12T05:40:14;46.63;;;13.88;;
69678;SDS011;56915;52.046;4.854;2022-11-12T05:42:41;62.45;;;14.63;;
69678;SDS011;56915;52.046;4.854;2022-11-12T05:45:07;71.40;;;15.30;;
69678;SDS011;56915;52.046;4.854;2022-11-12T05:47:34;92.82;;;15.60;;
69678;SDS011;56915;52.046;4.854;2022-11-12T05:50:01;75.78;;;14.32;;
69678;SDS011;56915;52.046;4.854;2022-11-12T05:52:28;62.22;;;14.60;;
69678;SDS011;56915;52.046;4.854;2022-11-12T05:54:55;69.00;;;14.20;;
69678;SDS011;56915;52.046;4.854;2022-11-12T05:57:22;76.03;;;14.63;;
69678;SDS011;56915;52.046;4.854;2022-11-12T05:59:48;61.00;;;14.48;;
69678;SDS011;56915;52.046;4.854;2022-11-12T06:02:15;113.65;;;15.88;;
69678;SDS011;56915;52.046;4.854;2022-11-12T06:04:42;74.85;;;15.07;;
69678;SDS011;56915;52.046;4.854;2022-11-12T06:07:09;80.63;;;14.98;;
69678;SDS011;56915;52.046;4.854;2022-11-12T06:09:35;48.63;;;14.13;;
69678;SDS011;56915;52.046;4.854;2022-11-12T06:12:02;44.45;;;15.43;;
69678;SDS011;56915;52.046;4.854;2022-11-12T06:14:31;34.80;;;13.23;;
69678;SDS011;56915;52.046;4.854;2022-11-12T06:16:58;45.33;;;14.60;;
69678;SDS011;56915;52.046;4.854;2022-11-12T06:19:25;35.80;;;13.88;;
69678;SDS011;56915;52.046;4.854;2022-11-12T06:21:51;40.93;;;13.67;;
69678;SDS011;56915;52.046;4.854;2022-11-12T06:24:18;57.45;;;14.65;;
69678;SDS011;56915;52.046;4.854;2022-11-12T06:26:45;62.70;;;15.00;;
69678;SDS011;56915;52.046;4.854;2022-11-12T06:29:12;53.15;;;14.55;;
69678;SDS011;56915;52.046;4.854;2022-11-12T06:31:39;35.80;;;14.45;;
69678;SDS011;56915;52.046;4.854;2022-11-12T06:34:05;34.23;;;13.90;;
69678;SDS011;56915;52.046;4.854;2022-11-12T06:36:32;40.28;;;13.73;;
69678;SDS011;56915;52.046;4.854;2022-11-12T06:39:00;53.78;;;14.05;;
69678;SDS011;56915;52.046;4.854;2022-11-12T06:41:26;31.48;;;13.23;;
69678;SDS011;56915;52.046;4.854;2022-11-12T06:43:53;41.22;;;13.88;;
69678;SDS011;56915;52.046;4.854;2022-11-12T06:46:20;35.33;;;13.53;;
69678;SDS011;56915;52.046;4.854;2022-11-12T06:48:47;39.95;;;13.80;;
69678;SDS011;56915;52.046;4.854;2022-11-12T06:51:17;37.40;;;13.45;;
69678;SDS011;56915;52.046;4.854;2022-11-12T06:53:46;38.72;;;14.68;;
69678;SDS011;56915;52.046;4.854;2022-11-12T06:56:13;41.15;;;14.00;;
69678;SDS011;56915;52.046;4.854;2022-11-12T06:58:40;28.23;;;14.50;;
69678;SDS011;56915;52.046;4.854;2022-11-12T07:01:08;32.58;;;16.05;;
69678;SDS011;56915;52.046;4.854;2022-11-12T07:03:40;27.05;;;15.55;;
69678;SDS011;56915;52.046;4.854;2022-11-12T07:06:09;28.90;;;15.40;;
69678;SDS011;56915;52.046;4.854;2022-11-12T07:08:37;29.73;;;15.80;;
69678;SDS011;56915;52.046;4.854;2022-11-12T07:11:04;29.43;;;16.20;;
69678;SDS011;56915;52.046;4.854;2022-11-12T07:13:32;29.15;;;16.52;;
69678;SDS011;56915;52.046;4.854;2022-11-12T07:16:00;32.38;;;17.60;;
69678;SDS011;56915;52.046;4.854;2022-11-12T07:18:27;28.63;;;15.93;;
69678;SDS011;56915;52.046;4.854;2022-11-12T07:21:01;30.42;;;16.02;;
69678;SDS011;56915;52.046;4.854;2022-11-12T07:23:34;28.90;;;15.57;;
69678;SDS011;56915;52.046;4.854;2022-11-12T07:28:30;27.85;;;15.35;;
69678;SDS011;56915;52.046;4.854;2022-11-12T07:33:25;31.38;;;15.93;;
69678;SDS011;56915;52.046;4.854;2022-11-12T07:36:03;27.53;;;15.93;;
69678;SDS011;56915;52.046;4.854;2022-11-12T07:38:32;29.42;;;15.57;;
69678;SDS011;56915;52.046;4.854;2022-11-12T07:41:05;30.40;;;16.60;;
69678;SDS011;56915;52.046;4.854;2022-11-12T07:43:34;33.03;;;16.92;;
69678;SDS011;56915;52.046;4.854;2022-11-12T07:46:06;30.27;;;16.52;;
69678;SDS011;56915;52.046;4.854;2022-11-12T07:48:50;29.57;;;16.53;;
69678;SDS011;56915;52.046;4.854;2022-11-12T07:51:20;33.10;;;17.70;;
69678;SDS011;56915;52.046;4.854;2022-11-12T07:53:50;31.85;;;17.80;;
69678;SDS011;56915;52.046;4.854;2022-11-12T07:56:24;29.35;;;16.48;;
69678;SDS011;56915;52.046;4.854;2022-11-12T07:58:52;32.50;;;17.08;;
69678;SDS011;56915;52.046;4.854;2022-11-12T08:01:35;30.60;;;16.83;;
69678;SDS011;56915;52.046;4.854;2022-11-12T08:04:07;31.90;;;16.95;;
69678;SDS011;56915;52.046;4.854;2022-11-12T08:06:35;32.10;;;17.30;;
69678;SDS011;56915;52.046;4.854;2022-11-12T08:09:03;32.80;;;16.98;;
69678;SDS011;56915;52.046;4.854;2022-11-12T08:11:33;33.88;;;17.33;;
69678;SDS011;56915;52.046;4.854;2022-11-12T08:14:00;32.63;;;16.93;;
69678;SDS011;56915;52.046;4.854;2022-11-12T08:16:27;33.65;;;17.48;;
69678;SDS011;56915;52.046;4.854;2022-11-12T08:18:54;30.70;;;17.60;;
69678;SDS011;56915;52.046;4.854;2022-11-12T08:21:20;37.35;;;19.35;;
69678;SDS011;56915;52.046;4.854;2022-11-12T08:23:47;37.25;;;19.23;;
69678;SDS011;56915;52.046;4.854;2022-11-12T08:26:16;38.83;;;20.10;;
69678;SDS011;56915;52.046;4.854;2022-11-12T08:28:44;39.05;;;20.50;;
69678;SDS011;56915;52.046;4.854;2022-11-12T08:31:15;40.22;;;20.35;;
69678;SDS011;56915;52.046;4.854;2022-11-12T08:33:44;42.40;;;19.25;;
69678;SDS011;56915;52.046;4.854;2022-11-12T08:36:12;34.72;;;19.35;;
69678;SDS011;56915;52.046;4.854;2022-11-12T08:38:40;36.67;;;19.83;;
69678;SDS011;56915;52.046;4.854;2022-11-12T08:41:08;39.47;;;20.38;;
69678;SDS011;56915;52.046;4.854;2022-11-12T08:43:37;41.05;;;20.85;;
69678;SDS011;56915;52.046;4.854;2022-11-12T08:46:04;36.90;;;20.65;;
69678;SDS011;56915;52.046;4.854;2022-11-12T08:48:31;35.30;;;20.15;;
69678;SDS011;56915;52.046;4.854;2022-11-12T08:51:01;37.90;;;19.90;;
69678;SDS011;56915;52.046;4.854;2022-11-12T08:53:29;35.80;;;19.05;;
69678;SDS011;56915;52.046;4.854;2022-11-12T08:55:56;34.10;;;19.00;;
69678;SDS011;56915;52.046;4.854;2022-11-12T08:58:23;33.72;;;17.13;;
69678;SDS011;56915;52.046;4.854;2022-11-12T09:00:52;31.52;;;17.50;;
69678;SDS011;56915;52.046;4.854;2022-11-12T09:03:20;30.17;;;15.90;;
69678;SDS011;56915;52.046;4.854;2022-11-12T09:05:48;29.98;;;15.77;;
69678;SDS011;56915;52.046;4.854;2022-11-12T09:08:17;28.92;;;15.95;;
69678;SDS011;56915;52.046;4.854;2022-11-12T09:10:47;25.25;;;14.98;;
69678;SDS011;56915;52.046;4.854;2022-11-12T09:13:16;28.35;;;15.57;;
69678;SDS011;56915;52.046;4.854;2022-11-12T09:15:44;27.60;;;16.13;;
69678;SDS011;56915;52.046;4.854;2022-11-12T09:18:13;33.88;;;17.58;;
69678;SDS011;56915;52.046;4.854;2022-11-12T09:20:41;37.00;;;19.90;;
69678;SDS011;56915;52.046;4.854;2022-11-12T09:23:09;43.08;;;22.02;;
69678;SDS011;56915;52.046;4.854;2022-11-12T09:25:38;44.33;;;24.55;;
69678;SDS011;56915;52.046;4.854;2022-11-12T09:28:07;42.73;;;23.20;;
69678;SDS011;56915;52.046;4.854;2022-11-12T09:30:36;44.95;;;23.17;;
69678;SDS011;56915;52.046;4.854;2022-11-12T09:33:07;41.55;;;22.50;;
69678;SDS011;56915;52.046;4.854;2022-11-12T09:35:33;35.78;;;20.30;;
69678;SDS011;56915;52.046;4.854;2022-11-12T09:38:00;35.13;;;18.70;;
69678;SDS011;56915;52.046;4.854;2022-11-12T09:40:38;28.93;;;16.40;;
69678;SDS011;56915;52.046;4.854;2022-11-12T09:45:51;31.13;;;17.13;;
69678;SDS011;56915;52.046;4.854;2022-11-12T09:48:41;34.67;;;19.58;;
69678;SDS011;56915;52.046;4.854;2022-11-12T09:51:24;31.33;;;17.95;;
69678;SDS011;56915;52.046;4.854;2022-11-12T09:53:54;28.80;;;16.67;;
69678;SDS011;56915;52.046;4.854;2022-11-12T09:56:23;26.65;;;15.55;;
69678;SDS011;56915;52.046;4.854;2022-11-12T09:58:51;26.17;;;14.98;;
69678;SDS011;56915;52.046;4.854;2022-11-12T10:01:23;23.67;;;13.57;;
69678;SDS011;56915;52.046;4.854;2022-11-12T10:07:05;24.97;;;13.47;;
69678;SDS011;56915;52.046;4.854;2022-11-12T10:09:44;19.27;;;11.60;;
69678;SDS011;56915;52.046;4.854;2022-11-12T10:23:42;18.67;;;11.13;;
69678;SDS011;56915;52.046;4.854;2022-11-12T10:26:11;18.08;;;10.88;;
69678;SDS011;56915;52.046;4.854;2022-11-12T10:31:16;19.08;;;10.98;;
69678;SDS011;56915;52.046;4.854;2022-11-12T10:33:44;15.87;;;10.00;;
69678;SDS011;56915;52.046;4.854;2022-11-12T10:36:25;15.55;;;9.68;;
69678;SDS011;56915;52.046;4.854;2022-11-12T10:38:56;15.48;;;9.23;;
69678;SDS011;56915;52.046;4.854;2022-11-12T10:41:26;15.50;;;9.18;;
69678;SDS011;56915;52.046;4.854;2022-11-12T10:43:57;17.13;;;9.32;;
69678;SDS011;56915;52.046;4.854;2022-11-12T10:46:29;18.00;;;10.60;;
69678;SDS011;56915;52.046;4.854;2022-11-12T10:49:21;14.70;;;9.48;;
69678;SDS011;56915;52.046;4.854;2022-11-12T10:51:56;19.10;;;10.02;;
69678;SDS011;56915;52.046;4.854;2022-11-12T10:54:28;17.38;;;9.50;;
69678;SDS011;56915;52.046;4.854;2022-11-12T10:57:34;16.65;;;10.52;;
69678;SDS011;56915;52.046;4.854;2022-11-12T11:02:49;16.30;;;10.43;;
69678;SDS011;56915;52.046;4.854;2022-11-12T11:08:01;13.85;;;9.25;;
69678;SDS011;56915;52.046;4.854;2022-11-12T11:10:31;14.30;;;9.10;;
69678;SDS011;56915;52.046;4.854;2022-11-12T11:16:01;13.50;;;8.27;;
69678;SDS011;56915;52.046;4.854;2022-11-12T11:18:31;14.63;;;8.50;;
69678;SDS011;56915;52.046;4.854;2022-11-12T11:24:13;12.70;;;8.27;;
69678;SDS011;56915;52.046;4.854;2022-11-12T11:27:17;13.73;;;8.83;;
69678;SDS011;56915;52.046;4.854;2022-11-12T11:35:24;12.48;;;7.80;;
69678;SDS011;56915;52.046;4.854;2022-11-12T11:38:20;12.63;;;7.47;;
69678;SDS011;56915;52.046;4.854;2022-11-12T11:44:16;11.27;;;7.10;;
69678;SDS011;56915;52.046;4.854;2022-11-12T11:47:18;12.25;;;7.80;;
69678;SDS011;56915;52.046;4.854;2022-11-12T11:50:33;12.05;;;6.97;;
69678;SDS011;56915;52.046;4.854;2022-11-12T11:53:09;11.13;;;7.40;;
69678;SDS011;56915;52.046;4.854;2022-11-12T11:58:52;11.65;;;6.75;;
69678;SDS011;56915;52.046;4.854;2022-11-12T12:13:24;9.82;;;6.68;;
69678;SDS011;56915;52.046;4.854;2022-11-12T12:21:44;11.38;;;6.68;;
69678;SDS011;56915;52.046;4.854;2022-11-12T12:24:25;10.13;;;6.30;;
69678;SDS011;56915;52.046;4.854;2022-11-12T12:27:11;12.00;;;6.60;;
69678;SDS011;56915;52.046;4.854;2022-11-12T12:29:47;11.07;;;6.75;;
69678;SDS011;56915;52.046;4.854;2022-11-12T12:35:02;9.35;;;5.90;;
69678;SDS011;56915;52.046;4.854;2022-11-12T12:37:39;11.20;;;5.80;;
69678;SDS011;56915;52.046;4.854;2022-11-12T12:40:18;8.82;;;6.10;;
69678;SDS011;56915;52.046;4.854;2022-11-12T12:42:55;11.23;;;7.28;;
69678;SDS011;56915;52.046;4.854;2022-11-12T12:45:39;14.25;;;7.82;;
69678;SDS011;56915;52.046;4.854;2022-11-12T12:48:27;11.48;;;7.32;;
69678;SDS011;56915;52.046;4.854;2022-11-12T12:50:58;9.57;;;6.17;;
69678;SDS011;56915;52.046;4.854;2022-11-12T12:53:31;8.20;;;5.80;;
69678;SDS011;56915;52.046;4.854;2022-11-12T12:56:02;8.95;;;6.07;;
69678;SDS011;56915;52.046;4.854;2022-11-12T13:03:58;9.37;;;6.10;;
69678;SDS011;56915;52.046;4.854;2022-11-12T13:06:37;9.40;;;5.88;;
69678;SDS011;56915;52.046;4.854;2022-11-12T13:16:59;10.07;;;6.07;;
69678;SDS011;56915;52.046;4.854;2022-11-12T13:28:02;9.50;;;6.28;;
69678;SDS011;56915;52.046;4.854;2022-11-12T13:32:57;14.80;;;8.30;;
69678;SDS011;56915;52.046;4.854;2022-11-12T13:35:33;11.98;;;6.85;;
69678;SDS011;56915;52.046;4.854;2022-11-12T13:38:11;10.75;;;6.40;;
69678;SDS011;56915;52.046;4.854;2022-11-12T13:40:42;10.40;;;6.10;;
69678;SDS011;56915;52.046;4.854;2022-11-12T13:43:36;12.20;;;7.03;;
69678;SDS011;56915;52.046;4.854;2022-11-12T13:48:43;15.73;;;10.73;;
69678;SDS011;56915;52.046;4.854;2022-11-12T13:51:22;12.13;;;8.25;;
69678;SDS011;56915;52.046;4.854;2022-11-12T13:56:28;10.10;;;6.00;;
69678;SDS011;56915;52.046;4.854;2022-11-12T14:01:43;10.38;;;5.85;;
69678;SDS011;56915;52.046;4.854;2022-11-12T14:04:12;10.13;;;5.55;;
69678;SDS011;56915;52.046;4.854;2022-11-12T14:06:52;11.20;;;5.72;;
69678;SDS011;56915;52.046;4.854;2022-11-12T14:12:43;8.75;;;5.95;;
69678;SDS011;56915;52.046;4.854;2022-11-12T14:15:32;10.07;;;6.55;;
69678;SDS011;56915;52.046;4.854;2022-11-12T14:18:28;10.80;;;7.03;;
69678;SDS011;56915;52.046;4.854;2022-11-12T14:20:57;9.65;;;6.57;;
69678;SDS011;56915;52.046;4.854;2022-11-12T14:23:31;13.17;;;5.90;;
69678;SDS011;56915;52.046;4.854;2022-11-12T14:26:03;9.63;;;5.95;;
69678;SDS011;56915;52.046;4.854;2022-11-12T14:28:31;10.48;;;6.10;;
69678;SDS011;56915;52.046;4.854;2022-11-12T14:31:00;10.10;;;6.18;;
69678;SDS011;56915;52.046;4.854;2022-11-12T14:33:28;9.38;;;6.20;;
69678;SDS011;56915;52.046;4.854;2022-11-12T14:36:00;13.83;;;6.40;;
69678;SDS011;56915;52.046;4.854;2022-11-12T14:38:31;10.18;;;5.80;;
69678;SDS011;56915;52.046;4.854;2022-11-12T14:43:42;9.18;;;5.78;;
69678;SDS011;56915;52.046;4.854;2022-11-12T14:46:32;10.50;;;6.40;;
69678;SDS011;56915;52.046;4.854;2022-11-12T14:52:06;13.00;;;6.85;;
69678;SDS011;56915;52.046;4.854;2022-11-12T14:54:45;11.90;;;6.88;;
69678;SDS011;56915;52.046;4.854;2022-11-12T14:57:25;12.32;;;7.07;;
69678;SDS011;56915;52.046;4.854;2022-11-12T14:59:54;13.82;;;6.85;;
69678;SDS011;56915;52.046;4.854;2022-11-12T15:02:26;15.20;;;7.23;;
69678;SDS011;56915;52.046;4.854;2022-11-12T15:05:18;12.45;;;7.50;;
69678;SDS011;56915;52.046;4.854;2022-11-12T15:08:29;12.48;;;7.70;;
69678;SDS011;56915;52.046;4.854;2022-11-12T15:10:43;14.63;;;7.70;;
69678;SDS011;56915;52.046;4.854;2022-11-12T15:13:14;12.50;;;7.18;;
69678;SDS011;56915;52.046;4.854;2022-11-12T15:18:20;13.00;;;7.25;;
69678;SDS011;56915;52.046;4.854;2022-11-12T15:21:04;11.63;;;7.20;;
69678;SDS011;56915;52.046;4.854;2022-11-12T15:26:46;14.68;;;7.80;;
69678;SDS011;56915;52.046;4.854;2022-11-12T15:35:39;16.58;;;8.85;;
69678;SDS011;56915;52.046;4.854;2022-11-12T15:38:54;11.80;;;7.47;;
69678;SDS011;56915;52.046;4.854;2022-11-12T15:41:01;16.23;;;8.10;;
69678;SDS011;56915;52.046;4.854;2022-11-12T15:43:28;16.07;;;8.73;;
69678;SDS011;56915;52.046;4.854;2022-11-12T15:46:00;18.13;;;9.38;;
69678;SDS011;56915;52.046;4.854;2022-11-12T15:48:27;16.90;;;9.27;;
69678;SDS011;56915;52.046;4.854;2022-11-12T15:50:54;16.05;;;9.70;;
69678;SDS011;56915;52.046;4.854;2022-11-12T15:53:20;16.20;;;9.23;;
69678;SDS011;56915;52.046;4.854;2022-11-12T15:55:47;16.80;;;9.83;;
69678;SDS011;56915;52.046;4.854;2022-11-12T15:58:17;16.25;;;9.63;;
69678;SDS011;56915;52.046;4.854;2022-11-12T16:00:52;16.63;;;9.45;;
69678;SDS011;56915;52.046;4.854;2022-11-12T16:03:19;17.55;;;10.00;;
69678;SDS011;56915;52.046;4.854;2022-11-12T16:05:47;23.80;;;14.13;;
69678;SDS011;56915;52.046;4.854;2022-11-12T16:08:14;18.80;;;11.20;;
69678;SDS011;56915;52.046;4.854;2022-11-12T16:10:43;17.45;;;10.77;;
69678;SDS011;56915;52.046;4.854;2022-11-12T16:13:13;23.13;;;12.18;;
69678;SDS011;56915;52.046;4.854;2022-11-12T16:15:51;22.55;;;11.85;;
69678;SDS011;56915;52.046;4.854;2022-11-12T16:18:19;23.27;;;11.57;;
69678;SDS011;56915;52.046;4.854;2022-11-12T16:20:46;22.73;;;12.87;;
69678;SDS011;56915;52.046;4.854;2022-11-12T16:23:14;20.48;;;11.10;;
69678;SDS011;56915;52.046;4.854;2022-11-12T16:25:41;19.27;;;10.82;;
69678;SDS011;56915;52.046;4.854;2022-11-12T16:28:12;17.85;;;10.77;;
69678;SDS011;56915;52.046;4.854;2022-11-12T16:30:44;19.88;;;11.90;;
69678;SDS011;56915;52.046;4.854;2022-11-12T16:33:11;24.30;;;11.13;;
69678;SDS011;56915;52.046;4.854;2022-11-12T16:35:39;22.60;;;12.65;;
69678;SDS011;56915;52.046;4.854;2022-11-12T16:38:13;26.38;;;12.60;;
69678;SDS011;56915;52.046;4.854;2022-11-12T16:40:41;24.27;;;13.57;;
69678;SDS011;56915;52.046;4.854;2022-11-12T16:43:10;24.40;;;13.75;;
69678;SDS011;56915;52.046;4.854;2022-11-12T16:45:38;29.03;;;15.20;;
69678;SDS011;56915;52.046;4.854;2022-11-12T16:48:14;28.63;;;14.88;;
69678;SDS011;56915;52.046;4.854;2022-11-12T16:50:43;27.70;;;14.88;;
69678;SDS011;56915;52.046;4.854;2022-11-12T16:53:10;26.95;;;14.57;;